createdAt,value
2018-05-21T00:05:48.320Z,99.99
2018-05-21T00:15:48.302Z,99.99
2018-05-21T00:25:48.379Z,99.99
2018-05-21T00:35:48.302Z,99.99
2018-05-21T00:45:48.319Z,99.99
2018-05-21T00:55:48.292Z,99.99
2018-05-21T01:05:48.298Z,99.99
2018-05-21T01:15:48.369Z,99.99
2018-05-21T01:25:48.366Z,99.99
2018-05-21T01:35:48.298Z,99.99
2018-05-21T01:45:48.305Z,99.99
2018-05-21T01:55:48.293Z,99.99
2018-05-21T02:05:48.294Z,99.99
2018-05-21T02:15:48.287Z,99.99
2018-05-21T02:25:48.286Z,99.99
2018-05-21T02:35:48.289Z,99.99
2018-05-21T02:45:48.281Z,99.99
2018-05-21T02:55:48.297Z,99.99
2018-05-21T03:05:48.290Z,99.99
2018-05-21T03:15:48.303Z,99.99
2018-05-21T03:25:48.281Z,99.99
2018-05-21T03:35:48.273Z,99.99
2018-05-21T03:45:48.282Z,99.99
2018-05-21T03:55:48.272Z,99.99
2018-05-21T04:05:48.296Z,99.99
2018-05-21T04:15:48.288Z,99.99
2018-05-21T04:25:48.309Z,99.99
2018-05-21T04:35:48.294Z,99.99
2018-05-21T04:45:48.285Z,99.23
2018-05-21T04:55:48.316Z,95.84
2018-05-21T05:05:48.296Z,94.46
2018-05-21T05:15:48.304Z,93.07
2018-05-21T05:25:48.269Z,90.96
2018-05-21T05:35:48.317Z,88.71
2018-05-21T05:45:48.283Z,87.9
2018-05-21T05:55:48.277Z,85.74
2018-05-21T06:05:48.291Z,84.82
2018-05-21T06:15:48.310Z,80.83
2018-05-21T06:25:48.363Z,67.57
2018-05-21T06:35:48.319Z,56.66
2018-05-21T06:45:48.321Z,46.73
2018-05-21T06:55:48.282Z,42
2018-05-21T07:05:48.303Z,42.16
2018-05-21T07:15:48.325Z,38.73
2018-05-21T07:25:48.316Z,37.73
2018-05-21T07:35:48.302Z,37.95
2018-05-21T07:45:48.336Z,37.54
2018-05-21T07:55:48.348Z,36.87
2018-05-21T08:05:48.336Z,34.86
2018-05-21T08:15:48.344Z,33.15
2018-05-21T08:25:48.359Z,35.39
2018-05-21T08:35:48.349Z,34.06
2018-05-21T08:45:49.081Z,33.59
2018-05-21T08:55:48.395Z,35.47
2018-05-21T09:05:48.372Z,43.86
2018-05-21T09:15:48.385Z,53.05
2018-05-21T09:25:48.385Z,57.48
2018-05-21T09:35:48.420Z,59.79
2018-05-21T09:45:48.359Z,60.53
2018-05-21T09:55:48.369Z,53.59
2018-05-21T10:05:48.369Z,53.69
2018-05-21T10:15:48.392Z,50.82
2018-05-21T10:25:48.416Z,52.82
2018-05-21T10:35:48.370Z,53.14
2018-05-21T10:45:48.348Z,51.56
2018-05-21T10:55:48.405Z,46.44
2018-05-21T11:05:48.399Z,47.21
2018-05-21T11:15:48.502Z,45.4
2018-05-21T11:25:48.520Z,47.24
2018-05-21T11:35:48.421Z,47.52
2018-05-21T11:45:48.420Z,44.53
2018-05-21T11:55:48.439Z,46.26
2018-05-21T12:05:48.420Z,44.26
2018-05-21T12:15:48.424Z,43.48
2018-05-21T12:25:53.385Z,46.58
2018-05-21T12:35:48.485Z,44.45
2018-05-21T12:45:48.595Z,42.51
2018-05-21T12:55:48.386Z,45.71
2018-05-21T13:05:48.406Z,42.13
2018-05-21T13:15:48.399Z,42.24
2018-05-21T13:25:48.411Z,42.05
2018-05-21T13:35:48.437Z,42.14
2018-05-21T13:45:48.406Z,43.41
2018-05-21T13:55:48.445Z,41.76
2018-05-21T14:05:48.520Z,41.86
2018-05-21T14:15:48.400Z,41.66
2018-05-21T14:25:48.416Z,41.08
2018-05-21T14:35:48.537Z,39.43
2018-05-21T14:45:48.423Z,38.78
2018-05-21T14:55:48.451Z,38.78
2018-05-21T15:05:48.645Z,37.61
2018-05-21T15:15:48.571Z,38.29
2018-05-21T15:25:48.570Z,36.85
2018-05-21T15:35:48.499Z,37.61
2018-05-21T15:45:48.478Z,37.32
2018-05-21T15:55:48.461Z,38
2018-05-21T16:05:48.490Z,38
2018-05-21T16:15:48.518Z,36.54
2018-05-21T16:25:48.473Z,38.17
2018-05-21T16:35:48.433Z,38.27
2018-05-21T16:45:48.431Z,38.07
2018-05-21T16:55:48.590Z,37.69
2018-05-21T17:05:48.477Z,38.15
2018-05-21T17:15:48.457Z,39.7
2018-05-21T17:25:48.454Z,40.75
2018-05-21T17:35:48.580Z,40.94
2018-05-21T17:45:48.476Z,41.7
2018-05-21T17:55:48.444Z,42.37
2018-05-21T18:05:48.728Z,43.61
2018-05-21T18:15:48.477Z,43.49
2018-05-21T18:25:48.434Z,44.53
2018-05-21T18:35:48.471Z,50.43
2018-05-21T18:45:48.574Z,54.05
2018-05-21T18:55:48.501Z,57.23
2018-05-21T19:05:48.500Z,58.94
2018-05-21T19:15:48.507Z,60.9
2018-05-21T19:25:48.479Z,61.65
2018-05-21T19:35:48.497Z,63.54
2018-05-21T19:45:48.495Z,63.12
2018-05-21T19:55:48.604Z,64.47
2018-05-21T20:05:48.487Z,64.66
2018-05-21T20:15:48.473Z,64.43
2018-05-21T20:25:48.791Z,64.53
2018-05-21T20:35:48.505Z,65.17
2018-05-21T20:45:48.523Z,65.37
2018-05-21T20:55:48.743Z,66.52
2018-05-21T21:05:48.509Z,67.77
2018-05-21T21:15:48.647Z,68.12
2018-05-21T21:25:49.170Z,68.12
2018-05-21T21:35:48.860Z,68.02
2018-05-21T21:45:48.519Z,68.89
2018-05-21T21:55:48.554Z,69.37
2018-05-21T22:05:48.487Z,70.23
2018-05-21T22:15:48.501Z,70.97
2018-05-21T22:25:48.466Z,70.97
2018-05-21T22:35:48.488Z,72.6
2018-05-21T22:45:48.491Z,72.66
2018-05-21T22:55:48.526Z,72.85
2018-05-21T23:05:48.497Z,74.29
2018-05-21T23:15:48.496Z,75.5
2018-05-21T23:25:48.526Z,77.13
2018-05-21T23:35:48.475Z,79.97
2018-05-21T23:45:48.446Z,80.99
2018-05-21T23:55:48.519Z,82.29
